Terminal Aerodrome Forecast
Issued by NWS

Home | Current Version | Previous Version | Graphics & Text | Print | Product List | Glossary On
Versions: 1 2 3 4 5 6 7 8 9 10 11 12 13 14 15 16 17 18 19 20 21 22 23 24 25 26
000
FTUS43 KBIS 270900 AAC
TAFMOT
TAF AMD
KMOT 270945Z 2710/2806 21005KT P6SM BKN025 OVC050
      TEMPO 2710/2713 SCT015 BKN035
     FM271300 25007KT P6SM SCT020 SCT045
     FM271600 25008KT P6SM SCT030 BKN060
     FM280000 30006KT P6SM SCT020 OVC045
     FM280200 35007KT 6SM -SN BR BKN015 OVC025=

USA.gov is the U.S. government's official web portal to all federal, state and local government web resources and services.